createdAt,value
2017-12-22T00:02:24.354Z,20.73
2017-12-22T00:04:52.047Z,21.47
2017-12-22T00:07:19.767Z,22.10
2017-12-22T00:09:47.549Z,21.10
2017-12-22T00:12:15.147Z,19.60
2017-12-22T00:14:42.854Z,20.03
2017-12-22T00:17:10.519Z,21.10
2017-12-22T00:19:38.245Z,20.13
2017-12-22T00:22:06.698Z,22.13
2017-12-22T00:24:34.435Z,20.60
2017-12-22T00:27:02.114Z,24.07
2017-12-22T00:29:29.835Z,22.20
2017-12-22T00:31:57.498Z,22.07
2017-12-22T00:34:25.227Z,18.60
2017-12-22T00:36:53.658Z,20.57
2017-12-22T00:39:21.397Z,24.87
2017-12-22T00:41:49.058Z,20.40
2017-12-22T00:44:16.768Z,23.40
2017-12-22T00:46:44.431Z,22.40
2017-12-22T00:49:12.143Z,27.13
2017-12-22T00:51:39.798Z,26.63
2017-12-22T00:54:07.510Z,27.00
2017-12-22T00:56:35.174Z,35.47
2017-12-22T00:59:03.659Z,20.30
2017-12-22T01:01:32.103Z,25.33
2017-12-22T01:03:59.803Z,27.10
2017-12-22T01:06:28.223Z,23.83
2017-12-22T01:08:55.880Z,22.57
2017-12-22T01:11:23.582Z,27.17
2017-12-22T01:13:51.235Z,23.60
2017-12-22T01:16:24.516Z,25.13
2017-12-22T01:18:57.883Z,21.20
2017-12-22T01:21:25.576Z,27.43
2017-12-22T01:23:53.247Z,21.87
2017-12-22T01:26:20.954Z,23.10
2017-12-22T01:28:48.610Z,23.97
2017-12-22T01:31:16.309Z,23.10
2017-12-22T01:33:43.992Z,23.63
2017-12-22T01:36:12.458Z,24.10
2017-12-22T01:38:40.137Z,20.47
2017-12-22T01:41:08.612Z,19.27
2017-12-22T01:43:37.040Z,22.30
2017-12-22T01:46:04.748Z,23.13
2017-12-22T01:48:33.197Z,21.53
2017-12-22T01:51:00.929Z,22.00
2017-12-22T01:53:28.635Z,22.67
2017-12-22T01:55:56.356Z,22.57
2017-12-22T01:58:24.019Z,22.30
2017-12-22T02:00:51.760Z,20.63
2017-12-22T02:03:19.434Z,23.37
2017-12-22T02:05:47.139Z,22.10
2017-12-22T02:08:14.804Z,25.07
2017-12-22T02:10:43.287Z,20.20
2017-12-22T02:13:11.727Z,26.20
2017-12-22T02:15:39.399Z,29.63
2017-12-22T02:18:07.127Z,24.10
2017-12-22T02:20:34.806Z,23.93
2017-12-22T02:23:02.523Z,22.57
2017-12-22T02:25:30.945Z,23.47
2017-12-22T02:27:58.651Z,27.33
2017-12-22T02:30:27.076Z,26.50
2017-12-22T02:32:54.782Z,23.50
2017-12-22T02:35:23.979Z,25.87
2017-12-22T02:37:52.452Z,25.80
2017-12-22T02:40:20.895Z,23.00
2017-12-22T02:42:48.608Z,23.00
2017-12-22T02:45:16.279Z,24.37
2017-12-22T02:47:43.999Z,27.00
2017-12-22T02:50:12.486Z,24.33
2017-12-22T02:52:40.972Z,24.70
2017-12-22T02:55:09.399Z,21.37
2017-12-22T02:57:37.136Z,26.90
2017-12-22T03:00:04.824Z,27.43
2017-12-22T03:02:33.302Z,23.87
2017-12-22T03:05:00.971Z,24.17
2017-12-22T03:07:28.685Z,20.60
2017-12-22T03:09:56.358Z,24.70
2017-12-22T03:12:24.071Z,23.90
2017-12-22T03:14:51.770Z,21.97
2017-12-22T03:17:19.487Z,26.33
2017-12-22T03:19:47.152Z,21.30
2017-12-22T03:22:14.871Z,22.17
2017-12-22T03:24:42.571Z,25.80
2017-12-22T03:27:10.231Z,24.07
2017-12-22T03:29:37.955Z,21.30
2017-12-22T03:32:05.674Z,25.70
2017-12-22T03:34:34.139Z,24.07
2017-12-22T03:37:02.568Z,25.40
2017-12-22T03:39:30.271Z,21.23
2017-12-22T03:41:57.939Z,25.67
2017-12-22T03:44:26.415Z,28.00
2017-12-22T03:46:54.852Z,23.80
2017-12-22T03:49:22.560Z,23.60
2017-12-22T03:51:50.985Z,26.87
2017-12-22T03:54:18.702Z,22.93
2017-12-22T03:56:47.139Z,23.67
2017-12-22T03:59:14.855Z,24.70
2017-12-22T04:01:42.518Z,25.27
2017-12-22T04:04:10.225Z,26.10
2017-12-22T04:06:37.895Z,24.63
2017-12-22T04:09:05.622Z,19.93
2017-12-22T04:11:33.502Z,24.70
2017-12-22T04:14:01.207Z,26.63
2017-12-22T04:16:29.631Z,22.57
2017-12-22T04:18:57.339Z,23.90
2017-12-22T04:21:25.766Z,27.37
2017-12-22T04:23:53.536Z,22.83
2017-12-22T04:26:21.255Z,25.00
2017-12-22T04:28:48.913Z,24.73
2017-12-22T04:31:16.624Z,27.00
2017-12-22T04:33:44.297Z,26.93
2017-12-22T04:36:12.001Z,31.40
2017-12-22T04:38:39.670Z,30.77
2017-12-22T04:41:07.372Z,29.37
2017-12-22T04:43:35.036Z,25.87
2017-12-22T04:46:02.742Z,25.70
2017-12-22T04:48:30.407Z,28.73
2017-12-22T04:50:58.112Z,19.50
2017-12-22T04:53:25.779Z,26.10
2017-12-22T04:55:53.495Z,23.60
2017-12-22T04:58:21.158Z,20.30
2017-12-22T05:00:48.862Z,21.57
2017-12-22T05:03:16.543Z,23.50
2017-12-22T05:05:45.015Z,22.07
2017-12-22T05:08:13.448Z,22.47
2017-12-22T05:10:41.159Z,16.80
2017-12-22T05:13:08.835Z,18.50
2017-12-22T05:15:36.555Z,18.30
2017-12-22T05:18:04.244Z,15.00
2017-12-22T05:20:32.721Z,17.13
2017-12-22T05:23:01.154Z,15.10
2017-12-22T05:25:28.818Z,17.63
2017-12-22T05:27:56.528Z,15.90
2017-12-22T05:30:24.187Z,15.80
2017-12-22T05:32:51.897Z,15.63
2017-12-22T05:35:19.558Z,19.43
2017-12-22T05:37:47.262Z,15.33
2017-12-22T05:40:14.918Z,15.30
2017-12-22T05:42:43.424Z,16.00
2017-12-22T05:45:11.111Z,15.43
2017-12-22T05:47:38.818Z,14.57
2017-12-22T05:50:06.548Z,15.50
2017-12-22T05:52:34.263Z,12.63
2017-12-22T05:55:02.344Z,15.33
2017-12-22T05:57:30.048Z,18.90
2017-12-22T05:59:58.489Z,27.20
2017-12-22T06:02:26.250Z,20.07
2017-12-22T06:04:53.917Z,17.57
2017-12-22T06:07:21.768Z,15.00
2017-12-22T06:09:49.482Z,19.33
2017-12-22T06:12:17.962Z,22.67
2017-12-22T06:14:46.412Z,14.60
2017-12-22T06:17:14.123Z,17.07
2017-12-22T06:19:41.784Z,17.23
2017-12-22T06:22:09.434Z,17.50
2017-12-22T06:24:37.150Z,14.60
2017-12-22T06:27:04.807Z,15.00
2017-12-22T06:29:32.519Z,14.60
2017-12-22T06:32:00.197Z,16.37
2017-12-22T06:34:27.909Z,12.50
2017-12-22T06:36:56.335Z,13.03
2017-12-22T06:39:24.042Z,11.30
2017-12-22T06:41:51.711Z,10.33
2017-12-22T06:44:20.180Z,10.63
2017-12-22T06:46:48.610Z,11.80
2017-12-22T06:49:16.310Z,10.17
2017-12-22T06:51:43.978Z,12.93
2017-12-22T06:54:12.618Z,9.70
2017-12-22T06:56:40.280Z,9.33
2017-12-22T06:59:08.052Z,10.33
2017-12-22T07:01:35.715Z,10.37
2017-12-22T07:04:03.414Z,8.40
2017-12-22T07:06:31.840Z,9.87
2017-12-22T07:08:59.535Z,7.60
2017-12-22T07:11:27.191Z,7.40
2017-12-22T07:13:55.672Z,7.40
2017-12-22T07:16:23.334Z,8.77
2017-12-22T07:18:51.817Z,8.03
2017-12-22T07:21:20.238Z,7.33
2017-12-22T07:23:47.899Z,7.87
2017-12-22T07:26:15.610Z,11.10
2017-12-22T07:28:44.039Z,7.83
2017-12-22T07:31:11.743Z,7.27
2017-12-22T07:33:39.459Z,5.83
2017-12-22T07:36:07.162Z,5.60
2017-12-22T07:38:34.823Z,4.97
2017-12-22T07:41:02.543Z,15.67
2017-12-22T07:43:30.975Z,12.50
2017-12-22T07:45:59.435Z,4.40
2017-12-22T07:48:27.095Z,5.27
2017-12-22T07:50:54.796Z,6.33
2017-12-22T07:53:22.454Z,3.80
2017-12-22T07:55:50.171Z,3.50
2017-12-22T07:58:17.826Z,5.40
2017-12-22T08:00:45.536Z,3.93
2017-12-22T08:03:13.191Z,3.40
2017-12-22T08:05:40.908Z,3.00
2017-12-22T08:08:08.568Z,3.47
2017-12-22T08:10:36.260Z,3.93
2017-12-22T08:13:03.911Z,3.77
2017-12-22T08:15:32.398Z,3.83
2017-12-22T08:18:00.060Z,3.03
2017-12-22T08:20:27.760Z,3.73
2017-12-22T08:22:55.419Z,3.97
2017-12-22T08:25:23.234Z,6.07
2017-12-22T08:27:50.944Z,3.23
2017-12-22T08:30:18.687Z,3.47
2017-12-22T08:32:46.395Z,3.83
2017-12-22T08:35:14.054Z,4.43
2017-12-22T08:37:41.769Z,8.00
2017-12-22T08:40:09.431Z,3.90
2017-12-22T08:42:37.139Z,4.53
2017-12-22T08:45:04.795Z,3.43
2017-12-22T08:47:32.500Z,3.97
2017-12-22T08:50:00.227Z,54.13
2017-12-22T08:52:28.712Z,13.93
2017-12-22T08:54:57.127Z,4.30
2017-12-22T08:57:24.835Z,4.23
2017-12-22T08:59:53.273Z,4.10
2017-12-22T09:02:20.979Z,3.90
2017-12-22T09:04:49.400Z,4.30
2017-12-22T09:07:17.098Z,4.47
2017-12-22T09:09:44.751Z,4.50
2017-12-22T09:12:12.450Z,4.63
2017-12-22T09:14:40.095Z,4.00
2017-12-22T09:17:08.568Z,3.90
2017-12-22T09:19:36.987Z,6.80
2017-12-22T09:22:04.687Z,5.17
2017-12-22T09:24:32.482Z,11.40
2017-12-22T09:27:00.146Z,6.97
2017-12-22T09:29:27.867Z,10.30
2017-12-22T09:31:55.531Z,7.90
2017-12-22T09:34:23.236Z,11.50
2017-12-22T09:36:50.899Z,10.70
2017-12-22T09:39:18.590Z,11.13
2017-12-22T09:41:46.246Z,13.33
2017-12-22T09:44:13.943Z,13.67
2017-12-22T09:46:41.599Z,18.90
2017-12-22T09:49:09.378Z,13.77
2017-12-22T09:51:37.819Z,14.13
2017-12-22T09:54:05.535Z,15.93
2017-12-22T09:56:34.140Z,16.77
2017-12-22T09:59:02.214Z,17.97
2017-12-22T10:01:29.872Z,17.07
2017-12-22T10:03:57.571Z,20.90
2017-12-22T10:06:25.240Z,17.93
2017-12-22T10:08:53.707Z,20.63
2017-12-22T10:11:21.359Z,19.67
2017-12-22T10:13:50.011Z,21.97
2017-12-22T10:16:17.710Z,18.87
2017-12-22T10:18:45.419Z,25.10
2017-12-22T10:21:13.079Z,18.30
2017-12-22T10:23:40.791Z,23.33
2017-12-22T10:26:08.492Z,22.87
2017-12-22T10:28:36.146Z,20.00
2017-12-22T10:31:03.858Z,22.67
2017-12-22T10:33:31.572Z,20.37
2017-12-22T10:35:59.271Z,22.97
2017-12-22T10:38:26.937Z,21.53
2017-12-22T10:40:54.656Z,21.30
2017-12-22T10:43:22.315Z,27.40
2017-12-22T10:45:50.017Z,26.00
2017-12-22T10:48:17.687Z,19.77
2017-12-22T10:50:45.399Z,25.80
2017-12-22T10:53:13.071Z,23.70
2017-12-22T10:55:40.783Z,29.50
2017-12-22T10:58:09.251Z,26.90
2017-12-22T11:00:37.752Z,25.97
2017-12-22T11:03:05.412Z,29.03
2017-12-22T11:05:33.199Z,28.10
2017-12-22T11:08:00.868Z,33.27
2017-12-22T11:10:28.630Z,29.07
2017-12-22T11:12:56.301Z,33.47
2017-12-22T11:15:24.004Z,27.20
2017-12-22T11:17:52.435Z,23.63
2017-12-22T11:20:20.135Z,23.50
2017-12-22T11:22:48.559Z,30.37
2017-12-22T11:25:16.271Z,33.50
2017-12-22T11:27:44.710Z,27.97
2017-12-22T11:30:12.425Z,27.10
2017-12-22T11:32:40.166Z,25.10
2017-12-22T11:35:08.606Z,31.70
2017-12-22T11:37:36.315Z,23.03
2017-12-22T11:40:04.748Z,24.47
2017-12-22T11:42:32.559Z,22.07
2017-12-22T11:45:01.007Z,24.10
2017-12-22T11:47:28.726Z,23.63
2017-12-22T11:49:56.457Z,22.90
2017-12-22T11:52:25.472Z,24.80
2017-12-22T11:54:53.258Z,20.00
2017-12-22T11:57:22.522Z,16.80
2017-12-22T11:59:50.191Z,17.23
2017-12-22T12:02:17.936Z,18.70
2017-12-22T12:04:45.604Z,17.57
2017-12-22T12:07:13.311Z,16.30
2017-12-22T12:09:40.982Z,18.80
2017-12-22T12:12:08.678Z,21.27
2017-12-22T12:14:36.366Z,25.10
2017-12-22T12:17:04.067Z,22.53
2017-12-22T12:19:31.752Z,20.50
2017-12-22T12:21:59.466Z,27.20
2017-12-22T12:24:27.131Z,25.70
2017-12-22T12:26:54.832Z,19.10
2017-12-22T12:29:22.502Z,17.90
2017-12-22T12:31:50.236Z,22.53
2017-12-22T12:34:18.664Z,16.67
2017-12-22T12:36:46.335Z,17.47
2017-12-22T12:39:14.074Z,15.00
2017-12-22T12:41:41.788Z,14.33
2017-12-22T12:44:10.379Z,14.83
2017-12-22T12:46:38.816Z,14.40
2017-12-22T12:49:06.519Z,13.37
2017-12-22T12:51:34.959Z,16.47
2017-12-22T12:54:02.768Z,16.07
2017-12-22T12:56:30.442Z,14.90
2017-12-22T12:58:58.155Z,17.83
2017-12-22T13:01:25.852Z,15.20
2017-12-22T13:03:53.555Z,15.07
2017-12-22T13:06:21.219Z,14.10
2017-12-22T13:08:48.947Z,17.00
2017-12-22T13:11:16.627Z,14.13
2017-12-22T13:13:44.347Z,15.87
2017-12-22T13:16:12.779Z,16.77
2017-12-22T13:18:40.539Z,18.90
2017-12-22T13:21:08.211Z,15.90
2017-12-22T13:23:35.955Z,17.23
2017-12-22T13:26:03.694Z,18.83
2017-12-22T13:28:31.363Z,22.10
2017-12-22T13:30:59.075Z,22.13
2017-12-22T13:33:27.531Z,21.33
2017-12-22T13:35:55.249Z,20.30
2017-12-22T13:38:22.930Z,21.90
2017-12-22T13:40:50.634Z,23.03
2017-12-22T13:43:19.107Z,18.97
2017-12-22T13:45:47.584Z,17.57
2017-12-22T13:48:15.245Z,20.00
2017-12-22T13:50:43.775Z,21.20
2017-12-22T13:53:11.469Z,17.53
2017-12-22T13:55:39.183Z,16.67
2017-12-22T13:58:06.848Z,24.10
2017-12-22T14:00:34.549Z,25.23
2017-12-22T14:03:02.223Z,264.87
2017-12-22T14:05:30.745Z,43.33
2017-12-22T14:07:59.311Z,56.27
2017-12-22T14:10:27.011Z,58.33
2017-12-22T14:12:55.315Z,54.97
2017-12-22T14:15:23.807Z,19.10
2017-12-22T14:17:52.238Z,20.40
2017-12-22T14:20:20.595Z,19.90
2017-12-22T14:22:48.391Z,23.37
2017-12-22T14:25:16.111Z,19.00
2017-12-22T14:27:43.839Z,18.47
2017-12-22T14:30:11.548Z,19.33
2017-12-22T14:32:39.259Z,70.77
2017-12-22T14:35:07.687Z,34.97
2017-12-22T14:37:35.540Z,26.07
2017-12-22T14:40:03.418Z,17.60
2017-12-22T14:42:31.133Z,20.80
2017-12-22T14:44:58.884Z,18.87
2017-12-22T14:47:27.374Z,23.80
2017-12-22T14:49:55.807Z,20.23
2017-12-22T14:52:23.563Z,23.40
2017-12-22T14:54:51.226Z,20.90
2017-12-22T14:57:19.135Z,20.90
2017-12-22T14:59:46.919Z,21.60
2017-12-22T15:02:14.628Z,19.83
2017-12-22T15:04:42.296Z,16.97
2017-12-22T15:07:10.099Z,20.93
2017-12-22T15:09:37.827Z,33.27
2017-12-22T15:12:06.310Z,27.77
2017-12-22T15:14:34.948Z,23.13
2017-12-22T15:17:03.249Z,25.07
2017-12-22T15:19:30.915Z,22.90
2017-12-22T15:21:58.687Z,24.70
2017-12-22T15:24:27.131Z,22.27
2017-12-22T15:26:54.861Z,24.40
2017-12-22T15:29:22.526Z,22.47
2017-12-22T15:31:50.239Z,24.07
2017-12-22T15:34:17.899Z,20.77
2017-12-22T15:36:45.605Z,19.77
2017-12-22T15:39:13.281Z,22.90
2017-12-22T15:41:40.952Z,21.03
2017-12-22T15:44:08.672Z,22.20
2017-12-22T15:46:36.387Z,18.00
2017-12-22T15:49:04.096Z,19.13
2017-12-22T15:51:32.875Z,23.93
2017-12-22T15:54:00.731Z,25.90
2017-12-22T15:56:28.769Z,24.60
2017-12-22T15:58:57.326Z,25.53
2017-12-22T16:01:25.017Z,19.90
2017-12-22T16:03:52.741Z,19.90
2017-12-22T16:06:20.400Z,20.37
2017-12-22T16:08:48.108Z,19.57
2017-12-22T16:11:16.534Z,26.10
2017-12-22T16:13:44.238Z,24.30
2017-12-22T16:16:12.694Z,25.50
2017-12-22T16:18:40.436Z,21.40
2017-12-22T16:21:08.104Z,25.47
2017-12-22T16:23:35.848Z,19.10
2017-12-22T16:26:03.528Z,59.73
2017-12-22T16:28:31.234Z,46.97
2017-12-22T16:30:59.659Z,21.10
2017-12-22T16:33:27.760Z,25.53
2017-12-22T16:35:55.435Z,26.37
2017-12-22T16:38:23.870Z,21.47
2017-12-22T16:40:51.579Z,23.83
2017-12-22T16:43:20.015Z,38.27
2017-12-22T16:45:47.727Z,24.97
2017-12-22T16:48:15.409Z,22.50
2017-12-22T16:50:43.114Z,24.37
2017-12-22T16:53:10.774Z,28.70
2017-12-22T16:55:39.430Z,33.23
2017-12-22T16:58:07.178Z,23.87
2017-12-22T17:00:34.896Z,17.30
2017-12-22T17:03:03.338Z,19.13
2017-12-22T17:05:31.088Z,21.27
2017-12-22T17:07:59.551Z,21.63
2017-12-22T17:10:27.261Z,19.73
2017-12-22T17:12:55.692Z,22.70
2017-12-22T17:15:23.388Z,18.87
2017-12-22T17:17:51.051Z,19.60
2017-12-22T17:20:18.755Z,18.70
2017-12-22T17:22:46.483Z,20.37
2017-12-22T17:25:14.956Z,20.60
2017-12-22T17:27:43.396Z,21.50
2017-12-22T17:30:11.109Z,20.97
2017-12-22T17:32:39.542Z,22.07
2017-12-22T17:35:07.248Z,17.93
2017-12-22T17:37:35.685Z,21.67
2017-12-22T17:40:03.363Z,21.00
2017-12-22T17:42:31.093Z,21.57
2017-12-22T17:44:59.016Z,22.80
2017-12-22T17:47:26.723Z,22.57
2017-12-22T17:49:54.383Z,24.27
2017-12-22T17:52:22.108Z,22.07
2017-12-22T17:54:49.767Z,24.30
2017-12-22T17:57:17.494Z,28.03
2017-12-22T17:59:45.155Z,25.97
2017-12-22T18:02:13.634Z,18.13
2017-12-22T18:04:42.063Z,22.07
2017-12-22T18:07:09.825Z,23.00
2017-12-22T18:09:37.553Z,35.33
2017-12-22T18:12:06.105Z,25.93
2017-12-22T18:14:33.772Z,23.57
2017-12-22T18:17:01.476Z,23.80
2017-12-22T18:19:29.138Z,25.43
2017-12-22T18:21:56.864Z,25.90
2017-12-22T18:24:25.290Z,23.60
2017-12-22T18:26:53.003Z,25.77
2017-12-22T18:29:22.247Z,22.70
2017-12-22T18:31:50.094Z,25.30
2017-12-22T18:34:17.851Z,26.20
2017-12-22T18:36:45.746Z,36.60
2017-12-22T18:39:13.575Z,26.47
2017-12-22T18:41:42.087Z,27.53
2017-12-22T18:44:09.954Z,28.17
2017-12-22T18:46:37.692Z,28.20
2017-12-22T18:49:05.355Z,29.23
2017-12-22T18:51:33.124Z,26.10
2017-12-22T18:54:00.779Z,25.13
2017-12-22T18:56:28.564Z,32.93
2017-12-22T18:58:56.427Z,30.47
2017-12-22T19:01:24.131Z,28.10
2017-12-22T19:03:51.838Z,35.13
2017-12-22T19:06:19.734Z,38.93
2017-12-22T19:08:48.344Z,39.93
2017-12-22T19:11:16.101Z,36.50
2017-12-22T19:13:43.803Z,39.13
2017-12-22T19:16:11.471Z,36.27
2017-12-22T19:18:39.180Z,36.87
2017-12-22T19:21:06.947Z,34.07
2017-12-22T19:23:34.800Z,38.80
2017-12-22T19:26:04.350Z,36.07
2017-12-22T19:28:32.229Z,35.50
2017-12-22T19:30:59.899Z,41.83
2017-12-22T19:33:27.671Z,44.97
2017-12-22T19:35:55.393Z,34.47
2017-12-22T19:38:23.115Z,34.07
2017-12-22T19:40:51.617Z,37.70
2017-12-22T19:43:19.335Z,50.40
2017-12-22T19:45:47.206Z,46.00
2017-12-22T19:48:15.656Z,35.43
2017-12-22T19:50:43.378Z,40.43
2017-12-22T19:53:11.940Z,56.43
2017-12-22T19:55:39.806Z,43.57
2017-12-22T19:58:08.907Z,32.77
2017-12-22T20:00:37.628Z,29.47
2017-12-22T20:03:18.623Z,27.30
2017-12-22T20:05:47.648Z,29.13
2017-12-22T20:08:15.383Z,39.60
2017-12-22T20:10:43.443Z,31.60
2017-12-22T20:13:11.681Z,31.67
2017-12-22T20:15:42.016Z,38.17
2017-12-22T20:18:09.796Z,40.33
2017-12-22T20:20:37.512Z,48.73
2017-12-22T20:23:05.179Z,53.23
2017-12-22T20:25:32.896Z,49.50
2017-12-22T20:28:01.357Z,69.10
2017-12-22T20:30:29.064Z,58.33
2017-12-22T20:32:57.343Z,197.67
2017-12-22T20:35:25.056Z,224.40
2017-12-22T20:37:52.737Z,184.63
2017-12-22T20:40:21.211Z,143.63
2017-12-22T20:42:49.680Z,109.47
2017-12-22T20:45:17.386Z,176.13
2017-12-22T20:47:45.054Z,89.53
2017-12-22T20:50:12.763Z,78.40
2017-12-22T20:52:41.204Z,56.37
2017-12-22T20:55:08.904Z,62.60
2017-12-22T20:57:37.323Z,48.10
2017-12-22T21:00:05.035Z,48.33
2017-12-22T21:02:32.691Z,42.40
2017-12-22T21:05:00.460Z,41.73
2017-12-22T21:07:28.099Z,33.80
2017-12-22T21:09:55.806Z,40.67
2017-12-22T21:12:23.473Z,40.63
2017-12-22T21:14:51.173Z,38.33
2017-12-22T21:17:18.836Z,34.20
2017-12-22T21:19:46.568Z,33.27
2017-12-22T21:22:14.238Z,36.03
2017-12-22T21:24:42.116Z,29.70
2017-12-22T21:27:09.868Z,29.03
2017-12-22T21:29:37.570Z,31.03
2017-12-22T21:32:06.027Z,28.37
2017-12-22T21:34:33.956Z,40.00
2017-12-22T21:37:01.622Z,35.80
2017-12-22T21:39:29.292Z,55.07
2017-12-22T21:41:57.006Z,53.87
2017-12-22T21:44:24.667Z,43.40
2017-12-22T21:46:52.415Z,32.60
2017-12-22T21:49:21.651Z,37.57
2017-12-22T21:51:49.355Z,52.37
2017-12-22T21:54:17.794Z,61.60
2017-12-22T21:56:45.535Z,48.90
2017-12-22T21:59:13.190Z,38.47
2017-12-22T22:01:40.887Z,44.33
2017-12-22T22:04:08.771Z,61.60
2017-12-22T22:06:37.645Z,49.43
2017-12-22T22:09:06.009Z,52.07
2017-12-22T22:11:33.918Z,62.77
2017-12-22T22:14:02.819Z,49.47
2017-12-22T22:16:30.581Z,63.83
2017-12-22T22:18:58.234Z,57.67
2017-12-22T22:21:26.702Z,71.47
2017-12-22T22:23:55.123Z,59.00
2017-12-22T22:26:22.827Z,36.17
2017-12-22T22:28:50.496Z,35.60
2017-12-22T22:31:18.963Z,29.13
2017-12-22T22:33:46.622Z,32.40
2017-12-22T22:36:14.342Z,30.23
2017-12-22T22:38:42.008Z,31.90
2017-12-22T22:41:09.665Z,18.33
2017-12-22T22:43:37.406Z,18.67
2017-12-22T22:46:05.100Z,17.00
2017-12-22T22:48:32.804Z,14.90
2017-12-22T22:51:01.222Z,18.03
2017-12-22T22:53:28.923Z,20.57
2017-12-22T22:55:56.587Z,22.93
2017-12-22T22:58:25.071Z,19.10
2017-12-22T23:00:53.505Z,20.07
2017-12-22T23:03:21.210Z,70.13
2017-12-22T23:05:49.672Z,17.67
2017-12-22T23:08:17.383Z,100.27
2017-12-22T23:10:45.047Z,130.53
2017-12-22T23:13:13.079Z,258.23
2017-12-22T23:15:40.784Z,50.43
2017-12-22T23:18:08.490Z,141.80
2017-12-22T23:20:36.915Z,71.43
2017-12-22T23:23:04.628Z,253.77
2017-12-22T23:25:33.064Z,190.03
2017-12-22T23:28:00.767Z,164.67
2017-12-22T23:30:29.208Z,269.83
2017-12-22T23:32:57.242Z,266.87
2017-12-22T23:35:24.892Z,116.13
2017-12-22T23:37:52.626Z,32.03
2017-12-22T23:40:20.289Z,57.57
2017-12-22T23:42:48.742Z,60.03
2017-12-22T23:45:16.458Z,58.90
2017-12-22T23:47:44.124Z,30.83
2017-12-22T23:50:11.835Z,28.23
2017-12-22T23:52:39.512Z,42.13
2017-12-22T23:55:07.991Z,28.53
2017-12-22T23:57:36.419Z,38.37
